Time;durP1;ratioP1;P1;durP2;ratioP2;P2;SDS_P1;SDS_P2;PMS_P1;PMS_P2;Temp;Humidity;BMP_temperature;BMP_pressure;BME280_temperature;BME280_humidity;BME280_pressure;Samples;Min_cycle;Max_cycle;Signal;HPM_P1;HPM_P2
2021/09/15 00:00:32;;;;;;;;;;;;;;;27.09;50.43;101105.31;5058543;28;19912;-85
2021/09/15 00:02:57;;;;;;;;;;;;;;;27.31;49.61;101119.50;5058375;28;19924;-84
2021/09/15 00:05:23;;;;;;;;;;;;;;;27.19;49.76;101111.56;5058018;28;20255;-85
2021/09/15 00:07:48;;;;;;;;;;;;;;;27.09;50.29;101112.78;5057995;28;19917;-87
2021/09/15 00:10:13;;;;;;;;;;;;;;;26.90;51.23;101114.00;5058053;28;20017;-85
2021/09/15 00:12:38;;;;;;;;;;;;;;;26.81;51.48;101113.13;5057535;28;19970;-86
2021/09/15 00:15:04;;;;;;;;;;;;;;;26.99;51.14;101112.97;5058433;28;20015;-85
2021/09/15 00:17:30;;;;;;;;;;;;;;;27.27;50.25;101113.44;5059242;28;19971;-86
2021/09/15 00:19:55;;;;;;;;;;;;;;;27.30;50.31;101107.53;5059641;28;19923;-84
2021/09/15 00:22:20;;;;;;;;;;;;;;;27.33;50.01;101101.66;5058880;28;20275;-86
2021/09/15 00:24:45;;;;;;;;;;;;;;;27.09;50.82;101096.97;5059384;28;19928;-86
2021/09/15 00:27:10;;;;;;;;;;;;;;;27.25;50.37;101093.28;5059328;28;19923;-85
2021/09/15 00:29:38;;;;;;;;;;;;;;;27.56;49.23;101089.78;5059005;28;19917;-85
2021/09/15 00:32:03;;;;;;;;;;;;;;;27.44;49.48;101089.28;5057625;28;19974;-86
2021/09/15 00:34:30;;;;;;;;;;;;;;;27.45;49.51;101095.72;5057976;28;19917;-86
2021/09/15 00:36:56;;;;;;;;;;;;;;;27.62;48.78;101097.41;5058926;28;19923;-86
2021/09/15 00:39:22;;;;;;;;;;;;;;;27.23;49.88;101087.91;5056698;28;19950;-86
2021/09/15 00:41:47;;;;;;;;;;;;;;;27.09;50.22;101101.69;5057642;28;19917;-86
2021/09/15 00:44:14;;;;;;;;;;;;;;;26.95;51.11;101100.47;5057148;28;19959;-84
2021/09/15 00:46:39;;;;;;;;;;;;;;;26.79;51.66;101091.09;5057034;28;19925;-85
2021/09/15 00:49:05;;;;;;;;;;;;;;;27.00;50.98;101089.72;5056691;28;19924;-87
2021/09/15 00:51:35;;;;;;;;;;;;;;;27.04;50.60;101085.56;5056780;28;19932;-85
2021/09/15 00:54:00;;;;;;;;;;;;;;;27.21;50.23;101086.38;5057510;28;19924;-86
2021/09/15 00:56:26;;;;;;;;;;;;;;;27.21;50.60;101092.78;5057752;28;19913;-86
2021/09/15 00:58:51;;;;;;;;;;;;;;;27.22;50.12;101094.53;5057197;28;19924;-85
2021/09/15 01:01:17;;;;;;;;;;;;;;;26.96;50.95;101093.88;5058036;28;19917;-84
2021/09/15 01:03:42;;;;;;;;;;;;;;;26.75;51.63;101086.06;5057661;28;20011;-86
2021/09/15 01:06:07;;;;;;;;;;;;;;;27.03;50.42;101081.88;5055852;28;19963;-86
2021/09/15 01:08:33;;;;;;;;;;;;;;;27.19;49.59;101088.44;5057343;28;19917;-85
2021/09/15 01:10:58;;;;;;;;;;;;;;;27.31;49.27;101086.16;5056061;28;20297;-85
2021/09/15 01:13:25;;;;;;;;;;;;;;;27.29;48.93;101091.06;5058229;28;19923;-85
2021/09/15 01:15:50;;;;;;;;;;;;;;;27.09;49.61;101093.34;5057166;28;20562;-85
2021/09/15 01:18:16;;;;;;;;;;;;;;;26.96;49.86;101093.88;5058269;28;19920;-83
2021/09/15 01:20:42;;;;;;;;;;;;;;;27.10;49.19;101093.19;5058186;28;19917;-86
2021/09/15 01:23:07;;;;;;;;;;;;;;;27.02;49.08;101094.03;5059172;28;19955;-85
2021/09/15 01:25:32;;;;;;;;;;;;;;;27.01;49.14;101095.09;5057927;28;19917;-85
2021/09/15 01:27:58;;;;;;;;;;;;;;;27.08;49.10;101092.47;5057201;28;20008;-87
2021/09/15 01:30:23;;;;;;;;;;;;;;;26.77;50.45;101095.97;5058089;28;20389;-86
2021/09/15 01:32:48;;;;;;;;;;;;;;;26.20;52.60;101091.19;5056689;28;19916;-86
2021/09/15 01:35:13;;;;;;;;;;;;;;;25.96;53.79;101094.72;5058195;28;19917;-85
2021/09/15 01:37:39;;;;;;;;;;;;;;;26.02;53.71;101085.75;5057747;28;19917;-86
2021/09/15 01:40:04;;;;;;;;;;;;;;;26.10;53.30;101083.00;5058823;28;20004;-86
2021/09/15 01:42:29;;;;;;;;;;;;;;;25.96;53.65;101086.41;5058131;28;19924;-86
2021/09/15 01:44:55;;;;;;;;;;;;;;;25.91;54.18;101083.28;5058221;28;19917;-85
2021/09/15 01:47:20;;;;;;;;;;;;;;;25.74;54.74;101082.31;5058486;28;19932;-85
2021/09/15 01:49:45;;;;;;;;;;;;;;;26.38;52.27;101076.31;5057064;28;20383;-86
2021/09/15 01:52:12;;;;;;;;;;;;;;;26.26;52.99;101081.31;5057665;28;19916;-86
2021/09/15 01:54:37;;;;;;;;;;;;;;;26.23;53.00;101078.88;5057982;28;19974;-86
2021/09/15 01:57:03;;;;;;;;;;;;;;;25.87;53.74;101081.88;5057874;28;19917;-86
2021/09/15 01:59:28;;;;;;;;;;;;;;;26.04;53.54;101078.13;5058982;28;19920;-86
2021/09/15 02:01:53;;;;;;;;;;;;;;;25.78;54.38;101075.41;5057007;28;19992;-88
2021/09/15 02:04:19;;;;;;;;;;;;;;;25.70;54.95;101075.41;5057348;28;19923;-86
2021/09/15 02:06:44;;;;;;;;;;;;;;;25.86;54.01;101063.50;5055716;28;19970;-86
2021/09/15 02:09:09;;;;;;;;;;;;;;;26.10;53.22;101069.13;5057240;28;20406;-88
2021/09/15 02:11:35;;;;;;;;;;;;;;;26.13;53.08;101066.06;5057067;28;19917;-86
2021/09/15 02:14:01;;;;;;;;;;;;;;;25.83;54.33;101078.53;5057414;28;19921;-86
2021/09/15 02:16:26;;;;;;;;;;;;;;;25.76;54.69;101070.06;5057751;28;19929;-86
2021/09/15 02:18:52;;;;;;;;;;;;;;;25.74;54.67;101065.69;5057931;28;19905;-86
2021/09/15 02:21:18;;;;;;;;;;;;;;;25.67;55.01;101064.66;5056620;28;19979;-85
2021/09/15 02:23:43;;;;;;;;;;;;;;;25.37;55.92;101072.47;5058975;28;19916;-87
2021/09/15 02:26:09;;;;;;;;;;;;;;;25.74;54.98;101068.47;5062089;28;19917;-86
2021/09/15 02:28:34;;;;;;;;;;;;;;;25.81;54.25;101061.22;5061054;28;19916;-85
2021/09/15 02:30:59;;;;;;;;;;;;;;;25.58;55.06;101070.16;5060795;28;20370;-86
2021/09/15 02:33:24;;;;;;;;;;;;;;;25.76;54.67;101074.72;5061409;28;19916;-85
2021/09/15 02:35:49;;;;;;;;;;;;;;;25.86;53.85;101064.34;5060508;28;19917;-87
2021/09/15 02:38:15;;;;;;;;;;;;;;;25.76;54.55;101064.50;5060636;28;19924;-84
2021/09/15 02:40:41;;;;;;;;;;;;;;;25.77;54.46;101073.69;5059313;28;19920;-87
2021/09/15 02:43:06;;;;;;;;;;;;;;;25.74;54.81;101068.47;5059895;28;20003;-86
2021/09/15 02:45:31;;;;;;;;;;;;;;;25.87;54.40;101062.47;5060379;28;19951;-87
2021/09/15 02:47:57;;;;;;;;;;;;;;;26.03;53.80;101064.44;5060007;28;19929;-87
2021/09/15 02:50:22;;;;;;;;;;;;;;;26.13;52.99;101060.50;5060095;28;19992;-86
2021/09/15 02:52:47;;;;;;;;;;;;;;;26.25;52.49;101069.34;5058469;28;19979;-87
2021/09/15 02:55:12;;;;;;;;;;;;;;;26.24;52.53;101056.53;5057804;28;19917;-87
2021/09/15 02:57:38;;;;;;;;;;;;;;;26.56;51.22;101048.38;5058331;28;19932;-87
2021/09/15 03:00:04;;;;;;;;;;;;;;;26.57;50.88;101050.13;5059280;28;19917;-86
2021/09/15 03:02:29;;;;;;;;;;;;;;;26.66;50.47;101054.63;5060798;28;19917;-86
2021/09/15 03:04:54;;;;;;;;;;;;;;;26.57;50.33;101055.69;5059258;28;19963;-86
2021/09/15 03:07:19;;;;;;;;;;;;;;;26.19;51.76;101047.84;5059422;28;19917;-85
2021/09/15 03:09:44;;;;;;;;;;;;;;;26.20;51.77;101055.13;5060096;28;19917;-86
2021/09/15 03:12:10;;;;;;;;;;;;;;;26.37;51.00;101042.16;5059265;28;19921;-86
2021/09/15 03:14:35;;;;;;;;;;;;;;;26.23;51.18;101045.59;5059464;28;20003;-87
2021/09/15 03:17:00;;;;;;;;;;;;;;;25.97;52.43;101044.66;5060876;28;20325;-88
2021/09/15 03:19:27;;;;;;;;;;;;;;;26.02;52.46;101046.09;5061926;28;20393;-86
2021/09/15 03:21:52;;;;;;;;;;;;;;;26.30;51.55;101041.09;5060103;28;20373;-86
2021/09/15 03:24:17;;;;;;;;;;;;;;;26.37;50.86;101032.97;5059964;28;19956;-86
2021/09/15 03:26:43;;;;;;;;;;;;;;;26.35;50.48;101033.13;5059331;28;19917;-86
2021/09/15 03:29:08;;;;;;;;;;;;;;;26.33;50.81;101027.75;5060690;28;19917;-86
2021/09/15 03:31:33;;;;;;;;;;;;;;;26.39;50.63;101034.53;5058514;28;20346;-87
2021/09/15 03:33:58;;;;;;;;;;;;;;;26.42;50.53;101025.88;5058159;28;20383;-87
2021/09/15 03:36:24;;;;;;;;;;;;;;;26.53;50.44;101030.19;5059530;28;19996;-87
2021/09/15 03:38:49;;;;;;;;;;;;;;;26.61;50.22;101034.88;5061240;28;20317;-87
2021/09/15 03:41:14;;;;;;;;;;;;;;;26.59;50.18;101031.41;5059897;28;19917;-87
2021/09/15 03:43:40;;;;;;;;;;;;;;;26.52;50.44;101034.84;5059853;28;19917;-87
2021/09/15 03:46:05;;;;;;;;;;;;;;;26.46;50.06;101035.56;5058718;28;20435;-86
2021/09/15 03:48:30;;;;;;;;;;;;;;;26.34;50.48;101039.72;5059157;28;19921;-86
2021/09/15 03:50:56;;;;;;;;;;;;;;;25.87;52.41;101043.06;5059092;28;20397;-86
2021/09/15 03:53:21;;;;;;;;;;;;;;;25.87;52.56;101037.53;5059798;28;20063;-87
2021/09/15 03:55:46;;;;;;;;;;;;;;;25.72;53.11;101042.84;5059360;28;19917;-87
2021/09/15 03:58:11;;;;;;;;;;;;;;;25.68;53.64;101052.50;5058389;28;19905;-87
2021/09/15 04:00:37;;;;;;;;;;;;;;;25.30;54.88;101047.31;5059497;28;19917;-86
2021/09/15 04:03:02;;;;;;;;;;;;;;;25.67;53.81;101042.50;5059062;28;19921;-86
2021/09/15 04:05:27;;;;;;;;;;;;;;;25.78;53.16;101040.25;5059068;28;19962;-88
2021/09/15 04:07:53;;;;;;;;;;;;;;;25.38;54.11;101050.16;5057955;28;20015;-86
2021/09/15 04:10:18;;;;;;;;;;;;;;;25.49;53.91;101048.13;5058764;28;19927;-85
2021/09/15 04:12:43;;;;;;;;;;;;;;;24.53;57.59;101044.28;5058684;28;19917;-85
2021/09/15 04:15:09;;;;;;;;;;;;;;;25.14;56.05;101048.06;5051335;28;19961;-85
2021/09/15 04:17:34;;;;;;;;;;;;;;;25.01;56.63;101042.97;5053313;28;19925;-86
2021/09/15 04:19:59;;;;;;;;;;;;;;;25.04;56.77;101052.84;5057648;28;20398;-84
2021/09/15 04:22:24;;;;;;;;;;;;;;;24.75;57.33;101052.13;5056988;28;20102;-85
2021/09/15 04:33:02;;;;;;;;;;;;;;;25.68;52.94;101045.09;5058540;28;20381;-84
2021/09/15 04:35:27;;;;;;;;;;;;;;;25.83;52.33;101037.88;5057778;28;19917;-85
2021/09/15 04:37:54;;;;;;;;;;;;;;;25.52;53.17;101039.47;5058988;28;19921;-85
2021/09/15 04:40:19;;;;;;;;;;;;;;;25.36;53.98;101038.34;5057750;28;20066;-84
2021/09/15 04:42:44;;;;;;;;;;;;;;;25.24;54.10;101043.28;5058194;28;19928;-86
2021/09/15 04:45:10;;;;;;;;;;;;;;;25.50;53.28;101036.88;5060279;28;19921;-85
2021/09/15 04:47:35;;;;;;;;;;;;;;;25.55;52.96;101036.38;5059108;28;20058;-87
2021/09/15 04:50:00;;;;;;;;;;;;;;;25.29;53.60;101045.56;5058847;28;19959;-85
2021/09/15 04:52:26;;;;;;;;;;;;;;;25.87;51.84;101045.84;5059849;28;19921;-86
2021/09/15 04:54:51;;;;;;;;;;;;;;;25.91;51.58;101042.56;5057655;28;19987;-84
2021/09/15 04:57:16;;;;;;;;;;;;;;;25.43;53.31;101047.72;5059787;28;19921;-84
2021/09/15 04:59:41;;;;;;;;;;;;;;;25.49;53.29;101053.66;5054208;28;19921;-85
2021/09/15 05:02:07;;;;;;;;;;;;;;;25.10;55.44;101049.44;5049057;28;19921;-86
2021/09/15 05:04:32;;;;;;;;;;;;;;;25.07;55.99;101042.31;5051200;28;19917;-86
2021/09/15 05:06:57;;;;;;;;;;;;;;;25.02;56.06;101039.16;5051692;28;19943;-88
2021/09/15 05:09:23;;;;;;;;;;;;;;;25.02;55.91;101041.94;5061296;28;19916;-86
2021/09/15 05:11:48;;;;;;;;;;;;;;;24.86;56.70;101039.91;5059571;28;20321;-85
2021/09/15 05:14:13;;;;;;;;;;;;;;;24.89;56.57;101033.19;5060371;28;19984;-85
2021/09/15 05:16:40;;;;;;;;;;;;;;;25.29;55.38;101040.91;5058718;28;21782;-83
2021/09/15 05:19:05;;;;;;;;;;;;;;;24.97;56.72;101047.09;5061548;28;19927;-86
2021/09/15 05:21:31;;;;;;;;;;;;;;;25.23;55.75;101046.22;5060336;28;19925;-83
2021/09/15 05:23:56;;;;;;;;;;;;;;;25.05;56.12;101051.84;5054777;28;19921;-87
2021/09/15 05:26:22;;;;;;;;;;;;;;;24.66;57.19;101047.56;5040000;28;19925;-86
2021/09/15 05:28:48;;;;;;;;;;;;;;;24.63;57.84;101055.31;5039986;28;19924;-87
2021/09/15 05:31:13;;;;;;;;;;;;;;;25.08;56.10;101055.13;5038762;28;19921;-85
2021/09/15 05:33:38;;;;;;;;;;;;;;;25.13;55.83;101054.63;5034695;28;20020;-85
2021/09/15 05:36:04;;;;;;;;;;;;;;;24.76;57.06;101056.63;5034590;28;20325;-87
2021/09/15 05:38:29;;;;;;;;;;;;;;;25.21;55.72;101057.47;5033828;28;19917;-87
2021/09/15 05:40:54;;;;;;;;;;;;;;;25.36;55.10;101048.56;5048176;28;19988;-84
2021/09/15 05:43:19;;;;;;;;;;;;;;;25.45;55.05;101042.91;5054193;28;19917;-86
2021/09/15 05:45:44;;;;;;;;;;;;;;;25.99;53.02;101041.75;5055448;28;20385;-88
2021/09/15 05:48:10;;;;;;;;;;;;;;;25.80;53.13;101052.06;5035752;28;19956;-84
2021/09/15 05:50:35;;;;;;;;;;;;;;;25.61;54.28;101058.72;5034952;28;20406;-87
2021/09/15 05:53:00;;;;;;;;;;;;;;;25.77;54.34;101054.28;5035760;28;19925;-81
2021/09/15 05:55:25;;;;;;;;;;;;;;;25.96;53.00;101059.53;5035040;28;19917;-85
2021/09/15 05:57:51;;;;;;;;;;;;;;;25.72;54.33;101068.63;5037803;28;19952;-84
2021/09/15 06:00:16;;;;;;;;;;;;;;;26.02;53.47;101062.72;5044644;28;19957;-84
2021/09/15 06:02:41;;;;;;;;;;;;;;;25.68;54.18;101063.59;5045827;28;19956;-82
2021/09/15 06:05:07;;;;;;;;;;;;;;;25.35;55.30;101075.41;5039299;28;19921;-83
2021/09/15 06:07:32;;;;;;;;;;;;;;;26.00;54.38;101082.31;5038201;28;19917;-84
2021/09/15 06:09:57;;;;;;;;;;;;;;;25.45;55.12;101081.69;5038076;28;19924;-84
2021/09/15 06:12:22;;;;;;;;;;;;;;;25.74;55.69;101083.22;5037102;28;19917;-82
2021/09/15 06:14:48;;;;;;;;;;;;;;;26.52;53.19;101087.56;5037137;28;19917;-84
2021/09/15 06:17:13;;;;;;;;;;;;;;;25.60;54.67;101090.22;5038813;28;19925;-85
2021/09/15 06:19:38;;;;;;;;;;;;;;;26.43;53.50;101082.22;5040853;28;19928;-87
2021/09/15 06:22:03;;;;;;;;;;;;;;;26.57;52.27;101086.19;5038897;28;19997;-87
2021/09/15 06:24:29;;;;;;;;;;;;;;;26.79;52.16;101085.53;5039224;28;19952;-87
2021/09/15 06:26:54;;;;;;;;;;;;;;;26.27;52.95;101092.25;5038775;28;20384;-85
2021/09/15 06:29:19;;;;;;;;;;;;;;;25.86;54.28;101088.44;5039667;28;19921;-87
2021/09/15 06:31:45;;;;;;;;;;;;;;;26.34;53.98;101086.88;5037185;28;20382;-86
2021/09/15 06:34:11;;;;;;;;;;;;;;;26.40;52.89;101091.72;5038866;28;19928;-86
2021/09/15 06:36:40;;;;;;;;;;;;;;;26.81;52.13;101080.72;5038323;28;20134;-86
2021/09/15 06:39:05;;;;;;;;;;;;;;;26.90;51.95;101080.69;5036859;28;19917;-87
2021/09/15 06:41:31;;;;;;;;;;;;;;;26.95;51.92;101093.00;5036439;28;19921;-86
2021/09/15 06:43:56;;;;;;;;;;;;;;;26.79;52.53;101084.69;5036282;28;19917;-86
2021/09/15 06:46:23;;;;;;;;;;;;;;;26.42;53.54;101095.22;5037831;28;20429;-86
2021/09/15 06:48:50;;;;;;;;;;;;;;;27.14;51.25;101088.97;5038889;28;19917;-86
2021/09/15 06:51:15;;;;;;;;;;;;;;;27.34;50.64;101089.50;5038492;28;19971;-86
2021/09/15 06:53:40;;;;;;;;;;;;;;;27.49;50.44;101089.66;5039879;28;19921;-86
2021/09/15 06:56:05;;;;;;;;;;;;;;;27.01;51.57;101097.88;5039145;28;19917;-86
2021/09/15 06:58:31;;;;;;;;;;;;;;;26.85;52.83;101100.66;5043775;28;19932;-86
2021/09/15 07:00:56;;;;;;;;;;;;;;;27.23;51.71;101099.03;5051609;28;19966;-87
2021/09/15 07:03:21;;;;;;;;;;;;;;;26.90;51.02;101098.19;5048617;28;20012;-87
2021/09/15 07:05:46;;;;;;;;;;;;;;;26.48;52.97;101099.19;5058970;28;19919;-87
2021/09/15 07:08:12;;;;;;;;;;;;;;;27.04;50.80;101102.22;5057779;28;19917;-85
2021/09/15 07:10:40;;;;;;;;;;;;;;;25.96;53.08;101114.13;5055603;28;19920;-87
2021/09/15 07:13:05;;;;;;;;;;;;;;;26.00;53.25;101110.03;5043748;28;19921;-89
2021/09/15 07:15:30;;;;;;;;;;;;;;;26.57;51.40;101111.19;5039496;28;19985;-89
2021/09/15 07:17:58;;;;;;;;;;;;;;;26.96;49.78;101110.53;5038473;28;19990;-91
2021/09/15 07:20:24;;;;;;;;;;;;;;;26.74;49.96;101099.09;5047965;28;19916;-90
2021/09/15 07:22:49;;;;;;;;;;;;;;;25.88;52.64;101112.19;5056937;28;20347;-88
2021/09/15 07:25:15;;;;;;;;;;;;;;;26.86;49.55;101097.69;5058842;28;19924;-89
2021/09/15 07:27:41;;;;;;;;;;;;;;;26.28;50.67;101104.19;5049145;28;19928;-89
2021/09/15 07:30:07;;;;;;;;;;;;;;;26.78;49.60;101108.78;5048639;28;19921;-89
2021/09/15 07:32:32;;;;;;;;;;;;;;;26.78;49.89;101105.16;5050283;28;19916;-91
2021/09/15 07:35:21;;;;;;;;;;;;;;;26.88;48.97;101109.47;5046786;28;19943;-92
2021/09/15 07:37:49;;;;;;;;;;;;;;;25.67;50.93;101115.38;5037653;28;19917;-90
2021/09/15 07:40:19;;;;;;;;;;;;;;;26.16;49.05;101109.19;4891845;22;5211193;-90
2021/09/15 07:42:56;;;;;;;;;;;;;;;26.81;47.90;101097.38;5058767;28;19959;-90
2021/09/15 07:45:22;;;;;;;;;;;;;;;27.57;45.38;101103.50;5057739;28;19920;-88
2021/09/15 07:47:47;;;;;;;;;;;;;;;27.15;46.07;101093.50;5040547;28;20283;-88
2021/09/15 07:50:12;;;;;;;;;;;;;;;27.16;45.60;101097.13;5057827;28;19917;-89
2021/09/15 07:52:38;;;;;;;;;;;;;;;26.64;46.35;101102.00;5058853;28;19901;-90
2021/09/15 07:55:04;;;;;;;;;;;;;;;26.66;46.23;101096.25;5058426;28;19924;-89
2021/09/15 07:57:29;;;;;;;;;;;;;;;26.12;48.11;101102.28;5057883;28;19917;-88
2021/09/15 07:59:54;;;;;;;;;;;;;;;25.81;48.86;101100.88;5058281;28;19917;-88
2021/09/15 08:02:19;;;;;;;;;;;;;;;25.80;48.17;101101.94;5057037;28;19951;-89
2021/09/15 08:04:45;;;;;;;;;;;;;;;26.17;47.87;101095.16;5057483;28;20368;-87
2021/09/15 08:07:10;;;;;;;;;;;;;;;26.28;46.53;101096.72;5057535;28;19967;-88
2021/09/15 08:09:35;;;;;;;;;;;;;;;25.86;47.46;101089.28;5056052;28;20346;-87
2021/09/15 08:12:01;;;;;;;;;;;;;;;25.96;46.35;101095.56;5056909;28;20009;-87
2021/09/15 08:14:26;;;;;;;;;;;;;;;26.58;45.23;101085.16;5056649;28;20381;-87
2021/09/15 08:16:52;;;;;;;;;;;;;;;26.63;45.16;101089.19;5056631;28;19921;-87
2021/09/15 08:19:17;;;;;;;;;;;;;;;26.84;44.41;101074.81;5056218;28;19971;-87
2021/09/15 08:21:42;;;;;;;;;;;;;;;26.34;46.11;101081.31;5056110;28;20433;-88
2021/09/15 08:24:08;;;;;;;;;;;;;;;26.18;45.41;101083.03;5057109;28;19917;-88
2021/09/15 08:26:33;;;;;;;;;;;;;;;26.25;44.61;101085.97;5057389;28;19917;-90
2021/09/15 08:28:58;;;;;;;;;;;;;;;25.85;45.69;101084.81;5057107;28;20286;-87
2021/09/15 08:31:24;;;;;;;;;;;;;;;26.72;44.11;101086.41;5057179;28;19936;-89
2021/09/15 08:33:49;;;;;;;;;;;;;;;25.74;45.88;101083.22;5057280;28;20366;-88
2021/09/15 08:36:14;;;;;;;;;;;;;;;26.30;45.15;101086.34;5056661;28;19921;-86
2021/09/15 08:38:39;;;;;;;;;;;;;;;26.67;43.95;101073.06;5055062;28;19923;-87
2021/09/15 08:41:05;;;;;;;;;;;;;;;25.93;45.75;101078.44;5055005;28;20045;-87
2021/09/15 08:43:33;;;;;;;;;;;;;;;25.80;45.60;101081.66;5056345;28;20436;-86
2021/09/15 08:46:00;;;;;;;;;;;;;;;25.89;45.73;101086.22;5055506;28;19924;-88
2021/09/15 08:48:25;;;;;;;;;;;;;;;25.66;46.14;101091.47;5056822;28;19927;-88
2021/09/15 08:50:52;;;;;;;;;;;;;;;26.79;44.13;101090.25;5056111;28;20358;-88
2021/09/15 08:53:18;;;;;;;;;;;;;;;26.94;43.67;101095.97;5056309;28;19924;-87
2021/09/15 08:55:46;;;;;;;;;;;;;;;25.53;46.60;101104.91;5056670;28;19917;-90
2021/09/15 08:58:12;;;;;;;;;;;;;;;25.35;47.71;101116.06;5055540;28;19938;-85
2021/09/15 09:00:37;;;;;;;;;;;;;;;26.10;45.10;101116.28;5055501;28;19952;-84
2021/09/15 09:03:02;;;;;;;;;;;;;;;26.03;45.21;101115.22;5057208;28;20371;-84
2021/09/15 09:05:28;;;;;;;;;;;;;;;26.35;44.42;101105.25;5057846;28;20462;-85
2021/09/15 09:07:54;;;;;;;;;;;;;;;25.23;47.19;101116.31;5047843;28;19921;-86
2021/09/15 09:10:19;;;;;;;;;;;;;;;25.33;47.17;101113.44;5035725;28;19988;-85
2021/09/15 09:12:45;;;;;;;;;;;;;;;25.70;46.12;101117.81;5036887;28;19928;-87
2021/09/15 09:15:25;;;;;;;;;;;;;;;25.32;47.20;101110.84;5036324;28;19924;-85
2021/09/15 09:17:51;;;;;;;;;;;;;;;25.70;46.61;101114.19;5035484;28;20013;-88
2021/09/15 09:20:18;;;;;;;;;;;;;;;26.61;43.90;101112.56;5053460;28;19956;-87
2021/09/15 09:22:56;;;;;;;;;;;;;;;25.91;45.59;101117.41;5035549;28;20382;-87
2021/09/15 09:25:21;;;;;;;;;;;;;;;26.68;43.28;101113.66;5052414;28;19971;-87
2021/09/15 09:27:46;;;;;;;;;;;;;;;26.95;42.75;101112.44;5036057;28;19917;-88
2021/09/15 09:30:29;;;;;;;;;;;;;;;26.69;43.61;101116.25;5036487;28;19932;-88
2021/09/15 09:32:54;;;;;;;;;;;;;;;25.88;46.09;101114.97;5037969;28;19913;-88
2021/09/15 09:35:19;;;;;;;;;;;;;;;26.43;45.19;101115.50;5039329;28;19917;-86
2021/09/15 09:37:44;;;;;;;;;;;;;;;25.42;47.65;101118.00;5039558;28;19917;-87
2021/09/15 09:40:11;;;;;;;;;;;;;;;27.69;42.35;101120.66;5055644;28;20115;-88
2021/09/15 09:42:38;;;;;;;;;;;;;;;27.39;42.57;101127.88;5038436;28;19921;-84
2021/09/15 09:45:06;;;;;;;;;;;;;;;26.67;43.57;101123.88;5037922;28;19917;-89
2021/09/15 09:47:32;;;;;;;;;;;;;;;26.27;44.50;101133.84;5055829;28;19925;-87
2021/09/15 09:50:02;;;;;;;;;;;;;;;26.02;45.55;101138.44;5039360;28;19917;-87
2021/09/15 09:52:27;;;;;;;;;;;;;;;26.29;44.51;101136.44;5038990;28;19917;-87
2021/09/15 09:54:59;;;;;;;;;;;;;;;27.14;43.07;101141.75;5039191;28;19940;-88
2021/09/15 09:57:26;;;;;;;;;;;;;;;26.62;44.30;101130.97;5039733;28;19988;-87
2021/09/15 09:59:51;;;;;;;;;;;;;;;26.49;44.80;101143.41;5039597;28;19905;-86
2021/09/15 10:02:17;;;;;;;;;;;;;;;26.68;44.13;101146.97;5038740;28;20417;-84
2021/09/15 10:04:42;;;;;;;;;;;;;;;26.69;43.51;101145.91;5053363;28;19930;-86
2021/09/15 10:07:08;;;;;;;;;;;;;;;27.06;42.93;101150.09;5058169;28;19952;-87
2021/09/15 10:09:36;;;;;;;;;;;;;;;27.34;42.34;101146.97;5058845;28;19924;-86
2021/09/15 10:12:02;;;;;;;;;;;;;;;27.66;41.29;101147.94;5058702;28;20445;-87
2021/09/15 10:14:28;;;;;;;;;;;;;;;27.05;42.75;101148.34;5058362;28;20370;-86
2021/09/15 10:17:00;;;;;;;;;;;;;;;27.55;42.19;101143.63;5059861;28;20290;-86
2021/09/15 10:19:28;;;;;;;;;;;;;;;26.78;43.56;101136.53;5057673;28;19897;-85
2021/09/15 10:21:59;;;;;;;;;;;;;;;27.31;42.48;101141.72;5057341;28;19917;-85
2021/09/15 10:24:44;;;;;;;;;;;;;;;27.30;42.65;101134.47;5058011;28;19913;-86
2021/09/15 10:27:09;;;;;;;;;;;;;;;28.56;40.02;101129.97;5059768;28;20378;-87
2021/09/15 10:29:39;;;;;;;;;;;;;;;28.26;40.57;101127.03;5058572;28;20011;-87
2021/09/15 10:32:05;;;;;;;;;;;;;;;28.39;41.08;101120.88;5058437;28;20019;-87
2021/09/15 10:34:39;;;;;;;;;;;;;;;28.14;41.10;101121.00;5059936;28;19994;-89
2021/09/15 10:37:10;;;;;;;;;;;;;;;28.14;41.49;101115.44;5059822;28;19967;-87
2021/09/15 10:39:52;;;;;;;;;;;;;;;28.62;39.93;101129.25;5059844;28;19951;-90
2021/09/15 10:45:16;;;;;;;;;;;;;;;28.45;40.21;101139.63;5059869;28;19917;-87
2021/09/15 10:47:41;;;;;;;;;;;;;;;27.48;41.89;101120.38;5058309;28;20306;-86
2021/09/15 10:50:07;;;;;;;;;;;;;;;28.39;39.57;101130.06;5058527;28;19932;-86
2021/09/15 10:52:35;;;;;;;;;;;;;;;27.94;40.77;101135.31;5057878;28;19924;-87
2021/09/15 10:55:00;;;;;;;;;;;;;;;28.27;40.06;101131.56;5058027;28;19916;-87
2021/09/15 10:57:31;;;;;;;;;;;;;;;28.46;40.04;101138.56;5060021;28;19974;-88
2021/09/15 10:59:59;;;;;;;;;;;;;;;28.04;41.18;101137.94;5058179;28;20462;-86
2021/09/15 11:02:32;;;;;;;;;;;;;;;27.14;43.13;101136.19;5058329;28;19928;-89
2021/09/15 11:04:58;;;;;;;;;;;;;;;27.51;41.88;101134.78;5057654;28;19997;-88
2021/09/15 11:07:42;;;;;;;;;;;;;;;27.37;42.90;101136.38;5057311;28;20235;-84
2021/09/15 11:10:09;;;;;;;;;;;;;;;27.38;42.23;101137.25;5056068;28;19994;-84
2021/09/15 11:12:44;;;;;;;;;;;;;;;27.22;42.62;101136.19;5057596;28;19916;-85
2021/09/15 11:15:25;;;;;;;;;;;;;;;26.87;43.60;101134.66;5062641;28;19917;-83
2021/09/15 11:17:51;;;;;;;;;;;;;;;26.48;44.41;101141.69;5060440;28;19913;-84
2021/09/15 11:20:20;;;;;;;;;;;;;;;26.52;44.16;101142.22;5064186;28;20005;-85
2021/09/15 11:22:47;;;;;;;;;;;;;;;27.60;42.12;101143.97;5056175;28;19970;-86
2021/09/15 11:25:22;;;;;;;;;;;;;;;27.06;43.68;101150.94;5056575;28;19917;-84
2021/09/15 11:28:07;;;;;;;;;;;;;;;26.35;44.95;101155.19;5056634;28;19916;-85
2021/09/15 11:30:33;;;;;;;;;;;;;;;26.52;45.24;101161.63;5057604;28;19924;-85
2021/09/15 11:32:58;;;;;;;;;;;;;;;27.13;43.41;101162.25;5056131;28;19917;-85
2021/09/15 11:35:24;;;;;;;;;;;;;;;26.18;45.54;101176.47;5057398;28;19923;-85
2021/09/15 11:37:49;;;;;;;;;;;;;;;25.80;45.79;101164.81;5057682;28;20286;-86
2021/09/15 11:40:14;;;;;;;;;;;;;;;26.38;44.52;101174.28;5055463;28;19929;-85
2021/09/15 11:42:40;;;;;;;;;;;;;;;26.58;44.25;101173.97;5055621;28;19956;-85
2021/09/15 11:45:18;;;;;;;;;;;;;;;26.47;44.24;101176.03;5056749;28;19928;-84
2021/09/15 11:47:44;;;;;;;;;;;;;;;25.75;46.22;101172.75;5056989;28;19993;-85
2021/09/15 11:50:14;;;;;;;;;;;;;;;26.03;45.98;101176.22;5056328;28;19921;-87
2021/09/15 11:52:45;;;;;;;;;;;;;;;26.48;44.36;101166.66;5056614;28;20020;-88
2021/09/15 11:55:12;;;;;;;;;;;;;;;26.68;44.68;101174.72;5056332;28;19925;-88
2021/09/15 11:57:44;;;;;;;;;;;;;;;26.69;44.41;101170.88;5058151;28;20223;-87
2021/09/15 12:00:10;;;;;;;;;;;;;;;26.95;43.86;101180.97;5058809;28;19950;-87
2021/09/15 12:02:37;;;;;;;;;;;;;;;27.29;42.83;101174.38;5057727;28;19917;-86
2021/09/15 12:05:03;;;;;;;;;;;;;;;27.88;41.73;101177.75;5056051;28;20174;-87
2021/09/15 12:07:29;;;;;;;;;;;;;;;28.20;41.19;101186.19;5057274;28;20373;-87
2021/09/15 12:09:55;;;;;;;;;;;;;;;27.69;41.58;101183.72;5056932;28;20397;-87
2021/09/15 12:12:20;;;;;;;;;;;;;;;27.65;41.70;101188.78;5055671;28;19916;-87
2021/09/15 12:14:48;;;;;;;;;;;;;;;27.39;41.35;101189.00;5056135;28;19943;-86
2021/09/15 12:17:13;;;;;;;;;;;;;;;27.51;41.71;101190.38;5040421;28;19916;-87
2021/09/15 12:19:45;;;;;;;;;;;;;;;27.68;41.29;101193.13;5055195;28;20385;-87
2021/09/15 12:22:17;;;;;;;;;;;;;;;27.71;41.56;101192.75;5054105;28;20426;-86
2021/09/15 12:24:54;;;;;;;;;;;;;;;27.21;42.49;101192.78;5055178;28;19912;-87
2021/09/15 12:27:20;;;;;;;;;;;;;;;27.25;42.32;101193.28;5056971;28;19924;-87
2021/09/15 12:29:55;;;;;;;;;;;;;;;27.28;42.28;101192.09;5057865;28;19921;-86
2021/09/15 12:32:26;;;;;;;;;;;;;;;27.26;42.22;101188.63;5057916;28;19917;-87
2021/09/15 12:34:51;;;;;;;;;;;;;;;26.94;43.05;101194.00;5057965;28;19917;-86
2021/09/15 12:37:17;;;;;;;;;;;;;;;26.78;43.21;101186.50;5057967;28;19927;-87
2021/09/15 12:39:45;;;;;;;;;;;;;;;27.65;41.48;101191.56;5056902;28;19916;-87
2021/09/15 12:42:15;;;;;;;;;;;;;;;28.11;40.55;101182.56;5057275;28;20071;-87